createdAt,value
2022-11-28T00:03:18.055Z,80.92
2022-11-28T00:08:19.578Z,80.54
2022-11-28T00:13:20.884Z,79.92
2022-11-28T00:18:22.211Z,80.27
2022-11-28T00:23:23.469Z,79.62
2022-11-28T00:28:24.729Z,78.78
2022-11-28T00:33:26.000Z,78.27
2022-11-28T00:38:27.258Z,78.04
2022-11-28T00:43:28.516Z,76.89
2022-11-28T00:48:29.782Z,76.68
2022-11-28T00:53:31.049Z,76.61
2022-11-28T00:58:32.308Z,77.85
2022-11-28T01:03:33.517Z,78.29
2022-11-28T01:08:34.830Z,78.65
2022-11-28T01:13:36.097Z,78.32
2022-11-28T01:18:37.342Z,78.89
2022-11-28T01:23:38.556Z,78.76
2022-11-28T01:28:39.756Z,78.55
2022-11-28T01:33:41.020Z,78.51
2022-11-28T01:38:42.314Z,78.01
2022-11-28T01:43:43.520Z,78.55
2022-11-28T01:48:44.773Z,78.22
2022-11-28T01:53:46.515Z,77.69
2022-11-28T01:58:47.717Z,77.39
2022-11-28T02:03:48.926Z,76.52
2022-11-28T02:08:50.119Z,77.37
2022-11-28T02:13:51.357Z,77.93
2022-11-28T02:18:52.581Z,79.38
2022-11-28T02:23:53.821Z,79.85
2022-11-28T02:28:55.029Z,79.76
2022-11-28T02:33:56.241Z,79.68
2022-11-28T02:38:57.493Z,79.46
2022-11-28T02:44:03.825Z,78.95
2022-11-28T02:49:06.652Z,78.12
2022-11-28T02:54:07.869Z,78.27
2022-11-28T02:59:09.065Z,77.68
2022-11-28T03:04:10.304Z,76.84
2022-11-28T03:09:11.513Z,76.29
2022-11-28T03:14:12.741Z,76.16
2022-11-28T03:19:14.001Z,75.11
2022-11-28T03:24:15.261Z,76.01
2022-11-28T03:29:16.528Z,75.85
2022-11-28T03:34:17.732Z,76.04
2022-11-28T03:39:18.929Z,75.97
2022-11-28T03:44:20.171Z,75.35
2022-11-28T03:49:21.388Z,76.20
2022-11-28T03:54:22.601Z,75.78
2022-11-28T03:59:23.792Z,76.44
2022-11-28T04:04:25.044Z,75.87
2022-11-28T04:09:26.295Z,75.57
2022-11-28T04:14:29.453Z,76.33
2022-11-28T04:19:30.720Z,76.45
2022-11-28T04:24:31.985Z,76.46
2022-11-28T04:29:33.262Z,77.99
2022-11-28T04:34:34.499Z,77.90
2022-11-28T04:39:35.773Z,77.92
2022-11-28T04:44:36.968Z,78.07
2022-11-28T04:49:38.202Z,80.06
2022-11-28T04:54:39.630Z,79.48
2022-11-28T04:59:41.018Z,79.47
2022-11-28T05:04:42.598Z,79.81
2022-11-28T05:09:44.027Z,79.49
2022-11-28T05:14:45.310Z,78.94
2022-11-28T05:19:46.564Z,78.42
2022-11-28T05:24:47.843Z,77.43
2022-11-28T05:29:52.227Z,76.73
2022-11-28T05:34:53.651Z,76.36
2022-11-28T05:39:54.935Z,76.30
2022-11-28T05:44:56.238Z,77.68
2022-11-28T05:49:57.614Z,76.66
2022-11-28T05:54:59.989Z,77.60
2022-11-28T06:00:01.267Z,77.78
2022-11-28T06:05:16.518Z,77.88
2022-11-28T06:10:22.624Z,78.42
2022-11-28T06:15:23.847Z,78.65
2022-11-28T06:20:25.088Z,78.28
2022-11-28T06:25:26.669Z,78.00
2022-11-28T06:30:27.916Z,78.47
2022-11-28T06:35:29.139Z,79.35
2022-11-28T06:40:30.361Z,78.78
2022-11-28T06:45:31.625Z,79.56
2022-11-28T06:50:32.957Z,81.01
2022-11-28T06:55:34.215Z,82.19
2022-11-28T07:00:35.469Z,83.16
2022-11-28T07:05:36.818Z,82.50
2022-11-28T07:10:38.473Z,82.22
2022-11-28T07:15:39.892Z,81.47
2022-11-28T07:20:41.113Z,79.86
2022-11-28T07:25:42.506Z,79.58
2022-11-28T07:30:43.715Z,79.23
2022-11-28T07:35:44.954Z,79.75
2022-11-28T07:40:46.235Z,79.95
2022-11-28T07:46:00.595Z,81.49
2022-11-28T07:51:02.599Z,81.31
2022-11-28T07:56:04.096Z,81.32
2022-11-28T08:01:05.413Z,80.39
2022-11-28T08:06:06.664Z,79.85
2022-11-28T08:11:08.054Z,89.17
2022-11-28T08:16:09.308Z,72.72
2022-11-28T08:21:10.674Z,60.52
2022-11-28T08:26:13.434Z,60.91
2022-11-28T08:31:15.032Z,65.49
2022-11-28T08:36:16.408Z,67.88
2022-11-28T08:41:17.655Z,68.56
2022-11-28T08:46:20.458Z,70.27
2022-11-28T08:51:23.837Z,69.17
2022-11-28T08:56:25.488Z,71.24
2022-11-28T09:01:26.869Z,71.25
2022-11-28T09:06:28.324Z,71.04
2022-11-28T09:11:29.688Z,72.06
2022-11-28T09:16:31.053Z,71.12
2022-11-28T09:21:32.474Z,71.13
2022-11-28T09:26:33.677Z,68.48
2022-11-28T09:31:35.078Z,70.17
2022-11-28T09:36:36.434Z,72.76
2022-11-28T09:41:37.796Z,73.87
2022-11-28T09:46:39.104Z,75.00
2022-11-28T09:51:40.435Z,75.30
2022-11-28T09:56:41.687Z,75.64
2022-11-28T10:01:42.982Z,75.26
2022-11-28T10:06:44.222Z,74.85
2022-11-28T10:11:45.744Z,73.97
2022-11-28T10:16:47.443Z,72.66
2022-11-28T10:21:48.785Z,72.35
2022-11-28T10:26:50.026Z,71.75
2022-11-28T10:31:51.305Z,72.55
2022-11-28T10:36:52.988Z,72.95
2022-11-28T10:42:11.364Z,72.52
2022-11-28T10:47:12.718Z,71.92
2022-11-28T10:52:13.965Z,72.36
2022-11-28T10:57:15.243Z,70.07
2022-11-28T11:02:16.540Z,70.78
2022-11-28T11:07:22.778Z,70.83
2022-11-28T11:12:26.421Z,70.04
2022-11-28T11:17:32.667Z,70.26
2022-11-28T11:22:36.779Z,71.56
2022-11-28T11:27:38.134Z,71.10
2022-11-28T11:32:39.465Z,71.41
2022-11-28T11:37:40.740Z,71.51
2022-11-28T11:42:42.008Z,71.90
2022-11-28T11:47:43.478Z,72.54
2022-11-28T11:52:44.821Z,73.12
2022-11-28T11:57:46.100Z,73.44
2022-11-28T12:02:47.653Z,72.75
2022-11-28T12:07:49.221Z,72.74
2022-11-28T12:12:50.624Z,73.71
2022-11-28T12:17:57.192Z,73.74
2022-11-28T12:23:00.033Z,73.95
2022-11-28T12:28:01.352Z,73.99
2022-11-28T12:33:02.624Z,73.61
2022-11-28T12:38:12.203Z,73.15
2022-11-28T12:43:13.808Z,73.32
2022-11-28T12:48:15.103Z,73.15
2022-11-28T12:53:16.688Z,73.73
2022-11-28T12:58:18.867Z,74.17
2022-11-28T13:03:22.166Z,73.59
2022-11-28T13:08:23.570Z,73.20
2022-11-28T13:13:24.892Z,72.95
2022-11-28T13:18:26.295Z,73.15
2022-11-28T13:23:28.576Z,73.37
2022-11-28T13:33:55.369Z,73.15
2022-11-28T13:39:11.968Z,73.25
2022-11-28T13:44:15.681Z,73.43
2022-11-28T13:49:20.621Z,74.18
2022-11-28T13:54:22.442Z,74.93
2022-11-28T13:59:25.346Z,74.69
2022-11-28T14:04:26.736Z,74.13
2022-11-28T14:09:28.019Z,75.58
2022-11-28T14:14:29.279Z,75.97
2022-11-28T14:19:30.541Z,75.64
2022-11-28T14:24:31.793Z,76.04
2022-11-28T14:29:33.254Z,76.88
2022-11-28T14:34:34.522Z,75.53
2022-11-28T14:39:35.810Z,75.30
2022-11-28T14:44:37.152Z,75.27
2022-11-28T14:49:38.574Z,74.56
2022-11-28T14:54:39.838Z,74.76
2022-11-28T14:59:41.203Z,75.69
2022-11-28T15:04:42.797Z,76.65
2022-11-28T15:09:44.305Z,76.65
2022-11-28T15:14:45.991Z,77.75
2022-11-28T15:19:47.771Z,78.01
2022-11-28T15:24:49.161Z,78.48
2022-11-28T15:29:50.425Z,78.38
2022-11-28T15:34:51.678Z,78.18
2022-11-28T15:39:52.904Z,78.94
2022-11-28T15:44:54.157Z,78.52
2022-11-28T15:49:55.460Z,77.45
2022-11-28T15:54:56.859Z,76.53
2022-11-28T15:59:58.105Z,76.27
2022-11-28T16:04:59.298Z,75.75
2022-11-28T16:10:00.806Z,75.89
2022-11-28T16:15:03.276Z,75.65
2022-11-28T16:20:04.674Z,75.86
2022-11-28T16:25:05.933Z,75.99
2022-11-28T16:30:07.182Z,77.19
2022-11-28T16:35:08.541Z,76.90
2022-11-28T16:40:09.807Z,77.67
2022-11-28T16:45:11.051Z,76.95
2022-11-28T16:50:15.742Z,76.23
2022-11-28T16:55:17.421Z,75.90
2022-11-28T17:00:18.695Z,76.57
2022-11-28T17:05:20.405Z,75.81
2022-11-28T17:10:21.736Z,75.42
2022-11-28T17:15:23.906Z,74.88
2022-11-28T17:20:26.478Z,74.20
2022-11-28T17:25:27.797Z,74.11
2022-11-28T17:30:29.057Z,73.73
2022-11-28T17:35:30.263Z,73.74
2022-11-28T17:40:36.427Z,75.36
2022-11-28T17:45:37.730Z,75.93
2022-11-28T17:50:38.948Z,77.81
2022-11-28T17:55:40.714Z,78.41
2022-11-28T18:00:42.060Z,79.46
2022-11-28T18:05:43.399Z,78.33
2022-11-28T18:10:44.651Z,77.28
2022-11-28T18:15:46.020Z,76.75
2022-11-28T18:20:47.299Z,75.87
2022-11-28T18:25:48.793Z,75.75
2022-11-28T18:30:50.085Z,76.51
2022-11-28T18:35:51.304Z,76.06
2022-11-28T18:40:52.538Z,76.75
2022-11-28T18:45:53.882Z,77.47
2022-11-28T18:50:55.134Z,77.40
2022-11-28T18:55:56.365Z,76.23
2022-11-28T19:00:57.611Z,75.83
2022-11-28T19:05:59.477Z,76.18
2022-11-28T19:11:00.728Z,75.52
2022-11-28T19:16:01.970Z,75.26
2022-11-28T19:21:03.236Z,74.75
2022-11-28T19:26:04.481Z,75.41
2022-11-28T19:31:05.875Z,75.16
2022-11-28T19:36:07.171Z,75.41
2022-11-28T19:41:08.413Z,74.35
2022-11-28T19:46:09.713Z,74.09
2022-11-28T19:51:10.972Z,75.02
2022-11-28T19:56:12.217Z,75.76
2022-11-28T20:01:13.562Z,75.92
2022-11-28T20:06:14.789Z,75.98
2022-11-28T20:11:16.081Z,74.78
2022-11-28T20:16:17.360Z,73.92
2022-11-28T20:21:18.637Z,74.47
2022-11-28T20:26:19.880Z,74.38
2022-11-28T20:31:21.164Z,76.41
2022-11-28T20:36:22.464Z,78.06
2022-11-28T20:41:23.746Z,79.05
2022-11-28T20:46:27.096Z,79.39
2022-11-28T20:51:28.408Z,79.43
2022-11-28T20:56:29.811Z,79.60
2022-11-28T21:01:33.202Z,79.33
2022-11-28T21:06:36.253Z,78.86
2022-11-28T21:11:56.387Z,78.82
2022-11-28T21:16:58.674Z,78.85
2022-11-28T21:21:59.932Z,78.06
2022-11-28T21:27:01.147Z,78.22
2022-11-28T21:32:02.466Z,79.45
2022-11-28T21:37:03.738Z,79.96
2022-11-28T21:42:04.952Z,79.90
2022-11-28T21:47:08.032Z,79.93
2022-11-28T21:52:09.554Z,79.21
2022-11-28T21:57:10.918Z,79.09
2022-11-28T22:02:12.267Z,79.57
2022-11-28T22:07:13.705Z,79.44
2022-11-28T22:12:14.970Z,78.79
2022-11-28T22:17:16.224Z,78.52
2022-11-28T22:22:17.490Z,77.98
2022-11-28T22:27:18.801Z,78.59
2022-11-28T22:32:20.089Z,78.66
2022-11-28T22:37:21.909Z,78.56
2022-11-28T22:42:23.333Z,78.17
2022-11-28T22:47:24.623Z,78.84
2022-11-28T22:52:25.880Z,79.76
2022-11-28T22:57:27.227Z,79.65
2022-11-28T23:02:28.603Z,79.44
2022-11-28T23:07:29.974Z,80.55
2022-11-28T23:12:31.361Z,80.70
2022-11-28T23:17:32.608Z,80.99
2022-11-28T23:22:34.395Z,81.34
2022-11-28T23:27:37.017Z,81.02
2022-11-28T23:32:38.225Z,81.30
2022-11-28T23:37:39.853Z,80.75
2022-11-28T23:42:41.709Z,80.60
2022-11-28T23:47:42.933Z,79.34
2022-11-28T23:52:44.174Z,79.72
2022-11-28T23:57:45.434Z,80.15
